sensor_id;sensor_type;location;lat;lon;timestamp;P1;durP1;ratioP1;P2;durP2;ratioP2
70253;SDS011;57649;42.968;1.608;2022-12-18T00:01:30;9.40;;;6.05;;
70253;SDS011;57649;42.968;1.608;2022-12-18T00:03:58;11.45;;;6.63;;
70253;SDS011;57649;42.968;1.608;2022-12-18T00:06:25;10.00;;;5.93;;
70253;SDS011;57649;42.968;1.608;2022-12-18T00:08:52;10.35;;;6.45;;
70253;SDS011;57649;42.968;1.608;2022-12-18T00:11:20;10.40;;;5.93;;
70253;SDS011;57649;42.968;1.608;2022-12-18T00:13:48;10.23;;;5.50;;
70253;SDS011;57649;42.968;1.608;2022-12-18T00:16:16;8.52;;;5.35;;
70253;SDS011;57649;42.968;1.608;2022-12-18T00:18:45;9.90;;;5.72;;
70253;SDS011;57649;42.968;1.608;2022-12-18T00:21:12;6.90;;;4.70;;
70253;SDS011;57649;42.968;1.608;2022-12-18T00:23:39;8.57;;;4.75;;
70253;SDS011;57649;42.968;1.608;2022-12-18T00:26:07;7.63;;;5.25;;
70253;SDS011;57649;42.968;1.608;2022-12-18T00:28:35;8.00;;;4.78;;
70253;SDS011;57649;42.968;1.608;2022-12-18T00:33:26;9.35;;;5.15;;
70253;SDS011;57649;42.968;1.608;2022-12-18T00:35:52;7.97;;;5.05;;
70253;SDS011;57649;42.968;1.608;2022-12-18T00:38:17;9.48;;;5.28;;
70253;SDS011;57649;42.968;1.608;2022-12-18T00:40:43;8.85;;;4.95;;
70253;SDS011;57649;42.968;1.608;2022-12-18T00:43:08;9.20;;;5.43;;
70253;SDS011;57649;42.968;1.608;2022-12-18T00:45:34;8.07;;;5.88;;
70253;SDS011;57649;42.968;1.608;2022-12-18T00:47:59;7.32;;;4.68;;
70253;SDS011;57649;42.968;1.608;2022-12-18T00:50:25;8.00;;;5.25;;
70253;SDS011;57649;42.968;1.608;2022-12-18T00:52:51;8.32;;;5.40;;
70253;SDS011;57649;42.968;1.608;2022-12-18T00:55:16;9.52;;;5.50;;
70253;SDS011;57649;42.968;1.608;2022-12-18T00:57:42;7.88;;;4.70;;
70253;SDS011;57649;42.968;1.608;2022-12-18T01:00:09;8.00;;;4.40;;
70253;SDS011;57649;42.968;1.608;2022-12-18T01:02:38;7.20;;;4.53;;
70253;SDS011;57649;42.968;1.608;2022-12-18T01:05:04;5.88;;;4.05;;
70253;SDS011;57649;42.968;1.608;2022-12-18T01:07:30;7.57;;;4.88;;
70253;SDS011;57649;42.968;1.608;2022-12-18T01:09:55;7.80;;;4.57;;
70253;SDS011;57649;42.968;1.608;2022-12-18T01:12:21;11.82;;;4.97;;
70253;SDS011;57649;42.968;1.608;2022-12-18T01:14:46;6.95;;;4.57;;
70253;SDS011;57649;42.968;1.608;2022-12-18T01:17:12;8.02;;;4.88;;
70253;SDS011;57649;42.968;1.608;2022-12-18T01:19:37;9.73;;;4.90;;
70253;SDS011;57649;42.968;1.608;2022-12-18T01:22:03;9.98;;;4.32;;
70253;SDS011;57649;42.968;1.608;2022-12-18T01:24:28;7.90;;;4.50;;
70253;SDS011;57649;42.968;1.608;2022-12-18T01:26:53;6.72;;;4.22;;
70253;SDS011;57649;42.968;1.608;2022-12-18T01:29:19;6.97;;;4.57;;
70253;SDS011;57649;42.968;1.608;2022-12-18T01:31:44;7.20;;;4.40;;
70253;SDS011;57649;42.968;1.608;2022-12-18T01:34:10;4.85;;;3.22;;
70253;SDS011;57649;42.968;1.608;2022-12-18T01:36:36;6.00;;;3.40;;
70253;SDS011;57649;42.968;1.608;2022-12-18T01:39:05;8.57;;;3.90;;
70253;SDS011;57649;42.968;1.608;2022-12-18T01:41:33;7.72;;;4.05;;
70253;SDS011;57649;42.968;1.608;2022-12-18T01:49:55;6.63;;;4.35;;
70253;SDS011;57649;42.968;1.608;2022-12-18T01:52:23;7.35;;;4.15;;
70253;SDS011;57649;42.968;1.608;2022-12-18T01:54:52;6.32;;;3.97;;
70253;SDS011;57649;42.968;1.608;2022-12-18T01:57:18;8.80;;;3.83;;
70253;SDS011;57649;42.968;1.608;2022-12-18T01:59:45;6.05;;;4.07;;
70253;SDS011;57649;42.968;1.608;2022-12-18T02:02:15;5.85;;;3.88;;
70253;SDS011;57649;42.968;1.608;2022-12-18T02:04:42;7.68;;;4.05;;
70253;SDS011;57649;42.968;1.608;2022-12-18T02:15:15;5.28;;;3.85;;
70253;SDS011;57649;42.968;1.608;2022-12-18T02:28:18;7.07;;;3.53;;
70253;SDS011;57649;42.968;1.608;2022-12-18T02:30:45;7.03;;;4.00;;
70253;SDS011;57649;42.968;1.608;2022-12-18T02:33:14;7.22;;;3.63;;
70253;SDS011;57649;42.968;1.608;2022-12-18T02:35:40;7.32;;;3.90;;
70253;SDS011;57649;42.968;1.608;2022-12-18T02:38:08;6.35;;;3.60;;
70253;SDS011;57649;42.968;1.608;2022-12-18T02:40:34;6.18;;;3.42;;
70253;SDS011;57649;42.968;1.608;2022-12-18T02:43:11;7.07;;;3.90;;
70253;SDS011;57649;42.968;1.608;2022-12-18T02:45:50;6.90;;;3.90;;
70253;SDS011;57649;42.968;1.608;2022-12-18T02:48:26;4.97;;;3.45;;
70253;SDS011;57649;42.968;1.608;2022-12-18T02:50:58;6.82;;;3.88;;
70253;SDS011;57649;42.968;1.608;2022-12-18T02:56:33;5.43;;;3.78;;
70253;SDS011;57649;42.968;1.608;2022-12-18T02:59:07;6.68;;;3.50;;
70253;SDS011;57649;42.968;1.608;2022-12-18T03:01:41;8.55;;;3.90;;
70253;SDS011;57649;42.968;1.608;2022-12-18T03:04:25;6.72;;;3.88;;
70253;SDS011;57649;42.968;1.608;2022-12-18T03:06:59;11.23;;;3.45;;
70253;SDS011;57649;42.968;1.608;2022-12-18T03:09:35;6.32;;;3.92;;
70253;SDS011;57649;42.968;1.608;2022-12-18T03:12:51;5.78;;;3.63;;
70253;SDS011;57649;42.968;1.608;2022-12-18T03:17:52;5.18;;;3.55;;
70253;SDS011;57649;42.968;1.608;2022-12-18T03:20:24;6.60;;;3.60;;
70253;SDS011;57649;42.968;1.608;2022-12-18T03:22:53;6.00;;;3.08;;
70253;SDS011;57649;42.968;1.608;2022-12-18T03:25:25;5.75;;;3.15;;
70253;SDS011;57649;42.968;1.608;2022-12-18T03:27:53;5.20;;;3.10;;
70253;SDS011;57649;42.968;1.608;2022-12-18T03:30:22;5.53;;;3.33;;
70253;SDS011;57649;42.968;1.608;2022-12-18T03:33:03;5.22;;;3.47;;
70253;SDS011;57649;42.968;1.608;2022-12-18T03:35:35;6.90;;;3.35;;
70253;SDS011;57649;42.968;1.608;2022-12-18T03:38:04;5.05;;;3.08;;
70253;SDS011;57649;42.968;1.608;2022-12-18T03:40:32;5.18;;;3.45;;
70253;SDS011;57649;42.968;1.608;2022-12-18T03:43:07;5.55;;;2.95;;
70253;SDS011;57649;42.968;1.608;2022-12-18T03:45:37;4.82;;;3.30;;
70253;SDS011;57649;42.968;1.608;2022-12-18T03:48:16;6.63;;;3.05;;
70253;SDS011;57649;42.968;1.608;2022-12-18T03:53:25;5.38;;;3.00;;
70253;SDS011;57649;42.968;1.608;2022-12-18T03:55:59;5.30;;;2.93;;
70253;SDS011;57649;42.968;1.608;2022-12-18T03:58:27;4.90;;;2.85;;
70253;SDS011;57649;42.968;1.608;2022-12-18T04:00:55;5.07;;;2.67;;
70253;SDS011;57649;42.968;1.608;2022-12-18T04:03:24;4.88;;;2.50;;
70253;SDS011;57649;42.968;1.608;2022-12-18T04:05:54;4.80;;;2.65;;
70253;SDS011;57649;42.968;1.608;2022-12-18T04:08:21;3.47;;;2.33;;
70253;SDS011;57649;42.968;1.608;2022-12-18T04:10:48;3.28;;;2.30;;
70253;SDS011;57649;42.968;1.608;2022-12-18T04:13:21;4.30;;;2.10;;
70253;SDS011;57649;42.968;1.608;2022-12-18T04:15:52;3.42;;;2.13;;
70253;SDS011;57649;42.968;1.608;2022-12-18T04:18:18;3.83;;;2.38;;
70253;SDS011;57649;42.968;1.608;2022-12-18T04:20:43;3.92;;;2.40;;
70253;SDS011;57649;42.968;1.608;2022-12-18T04:23:09;3.72;;;2.60;;
70253;SDS011;57649;42.968;1.608;2022-12-18T04:25:34;3.47;;;2.33;;
70253;SDS011;57649;42.968;1.608;2022-12-18T04:28:00;2.90;;;1.90;;
70253;SDS011;57649;42.968;1.608;2022-12-18T04:30:25;4.07;;;2.13;;
70253;SDS011;57649;42.968;1.608;2022-12-18T04:32:50;4.97;;;2.40;;
70253;SDS011;57649;42.968;1.608;2022-12-18T04:35:16;5.05;;;2.53;;
70253;SDS011;57649;42.968;1.608;2022-12-18T04:37:41;3.55;;;1.92;;
70253;SDS011;57649;42.968;1.608;2022-12-18T04:40:07;4.80;;;2.40;;
70253;SDS011;57649;42.968;1.608;2022-12-18T04:42:33;4.57;;;2.40;;
70253;SDS011;57649;42.968;1.608;2022-12-18T04:44:58;3.22;;;2.10;;
70253;SDS011;57649;42.968;1.608;2022-12-18T04:47:24;4.45;;;2.30;;
70253;SDS011;57649;42.968;1.608;2022-12-18T04:49:49;3.58;;;2.03;;
70253;SDS011;57649;42.968;1.608;2022-12-18T04:52:14;3.50;;;2.15;;
70253;SDS011;57649;42.968;1.608;2022-12-18T04:54:40;4.03;;;1.95;;
70253;SDS011;57649;42.968;1.608;2022-12-18T04:57:05;3.30;;;1.95;;
70253;SDS011;57649;42.968;1.608;2022-12-18T04:59:31;3.08;;;1.95;;
70253;SDS011;57649;42.968;1.608;2022-12-18T05:01:56;2.53;;;1.80;;
70253;SDS011;57649;42.968;1.608;2022-12-18T05:04:21;3.22;;;2.00;;
70253;SDS011;57649;42.968;1.608;2022-12-18T05:06:47;4.18;;;2.58;;
70253;SDS011;57649;42.968;1.608;2022-12-18T05:09:12;3.78;;;2.55;;
70253;SDS011;57649;42.968;1.608;2022-12-18T05:11:38;2.95;;;1.90;;
70253;SDS011;57649;42.968;1.608;2022-12-18T05:14:03;3.45;;;2.00;;
70253;SDS011;57649;42.968;1.608;2022-12-18T05:16:29;4.38;;;1.83;;
70253;SDS011;57649;42.968;1.608;2022-12-18T05:18:54;2.80;;;1.77;;
70253;SDS011;57649;42.968;1.608;2022-12-18T05:21:19;2.55;;;1.85;;
70253;SDS011;57649;42.968;1.608;2022-12-18T05:23:45;2.20;;;1.60;;
70253;SDS011;57649;42.968;1.608;2022-12-18T05:26:13;3.85;;;2.13;;
70253;SDS011;57649;42.968;1.608;2022-12-18T05:31:06;5.55;;;2.50;;
70253;SDS011;57649;42.968;1.608;2022-12-18T05:33:32;4.05;;;2.00;;
70253;SDS011;57649;42.968;1.608;2022-12-18T05:35:59;3.78;;;2.00;;
70253;SDS011;57649;42.968;1.608;2022-12-18T05:38:27;5.10;;;1.83;;
70253;SDS011;57649;42.968;1.608;2022-12-18T05:40:55;4.10;;;1.77;;
70253;SDS011;57649;42.968;1.608;2022-12-18T05:43:21;3.72;;;2.25;;
70253;SDS011;57649;42.968;1.608;2022-12-18T05:45:47;5.65;;;2.10;;
70253;SDS011;57649;42.968;1.608;2022-12-18T05:48:13;6.03;;;2.08;;
70253;SDS011;57649;42.968;1.608;2022-12-18T05:50:39;3.95;;;2.08;;
70253;SDS011;57649;42.968;1.608;2022-12-18T05:53:06;4.05;;;2.35;;
70253;SDS011;57649;42.968;1.608;2022-12-18T05:55:33;3.25;;;2.40;;
70253;SDS011;57649;42.968;1.608;2022-12-18T05:58:00;4.47;;;2.80;;
70253;SDS011;57649;42.968;1.608;2022-12-18T06:00:26;5.60;;;2.65;;
70253;SDS011;57649;42.968;1.608;2022-12-18T06:02:51;3.72;;;2.10;;
70253;SDS011;57649;42.968;1.608;2022-12-18T06:05:17;5.22;;;2.45;;
70253;SDS011;57649;42.968;1.608;2022-12-18T06:07:42;3.20;;;2.03;;
70253;SDS011;57649;42.968;1.608;2022-12-18T06:10:07;4.90;;;2.58;;
70253;SDS011;57649;42.968;1.608;2022-12-18T06:12:33;3.63;;;2.35;;
70253;SDS011;57649;42.968;1.608;2022-12-18T06:14:59;4.30;;;2.28;;
70253;SDS011;57649;42.968;1.608;2022-12-18T06:17:32;6.00;;;2.60;;
70253;SDS011;57649;42.968;1.608;2022-12-18T06:19:58;4.10;;;2.75;;
70253;SDS011;57649;42.968;1.608;2022-12-18T06:22:24;4.30;;;2.88;;
70253;SDS011;57649;42.968;1.608;2022-12-18T06:24:50;5.63;;;2.90;;
70253;SDS011;57649;42.968;1.608;2022-12-18T06:27:15;4.60;;;2.70;;
70253;SDS011;57649;42.968;1.608;2022-12-18T06:29:41;4.28;;;2.83;;
70253;SDS011;57649;42.968;1.608;2022-12-18T06:32:06;3.60;;;2.67;;
70253;SDS011;57649;42.968;1.608;2022-12-18T06:34:32;6.45;;;2.70;;
70253;SDS011;57649;42.968;1.608;2022-12-18T06:36:58;4.72;;;2.67;;
70253;SDS011;57649;42.968;1.608;2022-12-18T06:39:24;4.25;;;3.03;;
70253;SDS011;57649;42.968;1.608;2022-12-18T06:41:52;4.20;;;3.00;;
70253;SDS011;57649;42.968;1.608;2022-12-18T06:44:17;5.68;;;3.17;;
70253;SDS011;57649;42.968;1.608;2022-12-18T06:46:42;4.03;;;2.85;;
70253;SDS011;57649;42.968;1.608;2022-12-18T06:49:08;5.97;;;3.10;;
70253;SDS011;57649;42.968;1.608;2022-12-18T06:51:34;6.28;;;3.22;;
70253;SDS011;57649;42.968;1.608;2022-12-18T06:54:00;4.07;;;2.70;;
70253;SDS011;57649;42.968;1.608;2022-12-18T06:56:25;4.65;;;3.10;;
70253;SDS011;57649;42.968;1.608;2022-12-18T06:58:51;6.35;;;3.10;;
70253;SDS011;57649;42.968;1.608;2022-12-18T07:01:16;3.60;;;2.60;;
70253;SDS011;57649;42.968;1.608;2022-12-18T07:03:42;4.93;;;3.10;;
70253;SDS011;57649;42.968;1.608;2022-12-18T07:06:15;4.45;;;3.15;;
70253;SDS011;57649;42.968;1.608;2022-12-18T07:08:42;3.88;;;2.72;;
70253;SDS011;57649;42.968;1.608;2022-12-18T07:11:08;4.68;;;2.75;;
70253;SDS011;57649;42.968;1.608;2022-12-18T07:13:34;4.78;;;2.88;;
70253;SDS011;57649;42.968;1.608;2022-12-18T07:16:03;4.57;;;2.78;;
70253;SDS011;57649;42.968;1.608;2022-12-18T07:18:33;4.45;;;2.70;;
70253;SDS011;57649;42.968;1.608;2022-12-18T07:21:02;5.05;;;3.08;;
70253;SDS011;57649;42.968;1.608;2022-12-18T07:23:32;6.90;;;2.80;;
70253;SDS011;57649;42.968;1.608;2022-12-18T07:26:08;5.07;;;2.80;;
70253;SDS011;57649;42.968;1.608;2022-12-18T07:28:36;4.22;;;2.95;;
70253;SDS011;57649;42.968;1.608;2022-12-18T07:31:03;4.63;;;2.90;;
70253;SDS011;57649;42.968;1.608;2022-12-18T07:33:33;6.25;;;2.95;;
70253;SDS011;57649;42.968;1.608;2022-12-18T07:35:59;4.38;;;2.78;;
70253;SDS011;57649;42.968;1.608;2022-12-18T07:38:25;7.82;;;3.40;;
70253;SDS011;57649;42.968;1.608;2022-12-18T07:40:51;4.22;;;2.97;;
70253;SDS011;57649;42.968;1.608;2022-12-18T07:43:16;4.40;;;2.90;;
70253;SDS011;57649;42.968;1.608;2022-12-18T07:45:42;7.10;;;3.70;;
70253;SDS011;57649;42.968;1.608;2022-12-18T07:48:08;4.05;;;2.63;;
70253;SDS011;57649;42.968;1.608;2022-12-18T07:50:33;4.90;;;3.00;;
70253;SDS011;57649;42.968;1.608;2022-12-18T07:52:59;5.88;;;3.35;;
70253;SDS011;57649;42.968;1.608;2022-12-18T07:55:28;4.43;;;3.20;;
70253;SDS011;57649;42.968;1.608;2022-12-18T07:57:54;5.28;;;2.70;;
70253;SDS011;57649;42.968;1.608;2022-12-18T08:00:20;3.90;;;2.50;;
70253;SDS011;57649;42.968;1.608;2022-12-18T08:02:45;4.95;;;3.20;;
70253;SDS011;57649;42.968;1.608;2022-12-18T08:05:11;5.38;;;3.10;;
70253;SDS011;57649;42.968;1.608;2022-12-18T08:07:36;5.28;;;3.33;;
70253;SDS011;57649;42.968;1.608;2022-12-18T08:10:02;4.68;;;2.70;;
70253;SDS011;57649;42.968;1.608;2022-12-18T08:12:27;4.82;;;3.42;;
70253;SDS011;57649;42.968;1.608;2022-12-18T08:14:52;5.18;;;3.03;;
70253;SDS011;57649;42.968;1.608;2022-12-18T08:17:19;5.15;;;3.70;;
70253;SDS011;57649;42.968;1.608;2022-12-18T08:19:45;5.60;;;3.45;;
70253;SDS011;57649;42.968;1.608;2022-12-18T08:22:10;6.72;;;4.63;;
70253;SDS011;57649;42.968;1.608;2022-12-18T08:24:35;6.85;;;4.22;;
70253;SDS011;57649;42.968;1.608;2022-12-18T08:27:01;5.50;;;3.80;;
70253;SDS011;57649;42.968;1.608;2022-12-18T08:29:26;5.43;;;3.15;;
70253;SDS011;57649;42.968;1.608;2022-12-18T08:31:52;6.85;;;3.20;;
70253;SDS011;57649;42.968;1.608;2022-12-18T08:34:17;6.68;;;3.60;;
70253;SDS011;57649;42.968;1.608;2022-12-18T08:36:42;6.00;;;3.40;;
70253;SDS011;57649;42.968;1.608;2022-12-18T08:39:08;6.20;;;3.63;;
70253;SDS011;57649;42.968;1.608;2022-12-18T08:41:33;5.70;;;3.30;;
70253;SDS011;57649;42.968;1.608;2022-12-18T08:43:59;6.28;;;3.63;;
70253;SDS011;57649;42.968;1.608;2022-12-18T08:46:56;5.57;;;3.88;;
70253;SDS011;57649;42.968;1.608;2022-12-18T08:49:22;4.68;;;3.50;;
70253;SDS011;57649;42.968;1.608;2022-12-18T08:51:47;5.65;;;3.40;;
70253;SDS011;57649;42.968;1.608;2022-12-18T08:54:13;5.82;;;3.85;;
70253;SDS011;57649;42.968;1.608;2022-12-18T08:56:41;6.55;;;3.90;;
70253;SDS011;57649;42.968;1.608;2022-12-18T08:59:06;6.43;;;3.85;;
70253;SDS011;57649;42.968;1.608;2022-12-18T09:01:32;9.80;;;5.07;;
70253;SDS011;57649;42.968;1.608;2022-12-18T09:03:57;7.68;;;4.80;;
70253;SDS011;57649;42.968;1.608;2022-12-18T09:06:23;7.07;;;4.97;;
70253;SDS011;57649;42.968;1.608;2022-12-18T09:08:48;10.00;;;4.78;;
70253;SDS011;57649;42.968;1.608;2022-12-18T09:11:21;7.47;;;4.85;;
70253;SDS011;57649;42.968;1.608;2022-12-18T09:13:52;6.88;;;4.97;;
70253;SDS011;57649;42.968;1.608;2022-12-18T09:16:18;7.45;;;4.50;;
70253;SDS011;57649;42.968;1.608;2022-12-18T09:18:44;8.73;;;5.15;;
70253;SDS011;57649;42.968;1.608;2022-12-18T09:21:11;8.73;;;5.35;;
70253;SDS011;57649;42.968;1.608;2022-12-18T09:23:41;6.78;;;4.82;;
70253;SDS011;57649;42.968;1.608;2022-12-18T09:26:06;7.57;;;4.70;;
70253;SDS011;57649;42.968;1.608;2022-12-18T09:28:32;7.32;;;4.32;;
70253;SDS011;57649;42.968;1.608;2022-12-18T09:30:58;6.55;;;4.22;;
70253;SDS011;57649;42.968;1.608;2022-12-18T09:33:24;7.30;;;4.40;;
70253;SDS011;57649;42.968;1.608;2022-12-18T09:35:49;6.35;;;4.47;;
70253;SDS011;57649;42.968;1.608;2022-12-18T09:38:16;5.88;;;4.40;;
70253;SDS011;57649;42.968;1.608;2022-12-18T09:40:45;9.05;;;4.95;;
70253;SDS011;57649;42.968;1.608;2022-12-18T09:43:18;8.23;;;4.85;;
70253;SDS011;57649;42.968;1.608;2022-12-18T09:45:52;8.07;;;5.00;;
70253;SDS011;57649;42.968;1.608;2022-12-18T09:48:37;7.60;;;4.68;;
70253;SDS011;57649;42.968;1.608;2022-12-18T09:51:16;7.88;;;4.80;;
70253;SDS011;57649;42.968;1.608;2022-12-18T09:53:50;8.70;;;4.65;;
70253;SDS011;57649;42.968;1.608;2022-12-18T09:56:21;5.70;;;4.05;;
70253;SDS011;57649;42.968;1.608;2022-12-18T09:58:58;4.88;;;3.75;;
70253;SDS011;57649;42.968;1.608;2022-12-18T10:01:25;5.15;;;3.42;;
70253;SDS011;57649;42.968;1.608;2022-12-18T10:03:52;6.63;;;4.00;;
70253;SDS011;57649;42.968;1.608;2022-12-18T10:09:26;4.75;;;3.70;;
70253;SDS011;57649;42.968;1.608;2022-12-18T10:27:40;5.63;;;3.30;;
70253;SDS011;57649;42.968;1.608;2022-12-18T10:30:12;5.93;;;3.45;;
70253;SDS011;57649;42.968;1.608;2022-12-18T10:32:40;4.97;;;3.15;;
70253;SDS011;57649;42.968;1.608;2022-12-18T10:35:08;6.95;;;3.78;;
70253;SDS011;57649;42.968;1.608;2022-12-18T10:37:59;5.25;;;3.40;;
70253;SDS011;57649;42.968;1.608;2022-12-18T10:40:29;4.93;;;3.40;;
70253;SDS011;57649;42.968;1.608;2022-12-18T10:43:11;8.95;;;4.82;;
70253;SDS011;57649;42.968;1.608;2022-12-18T10:45:38;6.88;;;4.40;;
70253;SDS011;57649;42.968;1.608;2022-12-18T10:48:04;6.30;;;4.72;;
70253;SDS011;57649;42.968;1.608;2022-12-18T10:50:42;5.47;;;4.40;;
70253;SDS011;57649;42.968;1.608;2022-12-18T10:53:13;7.78;;;4.30;;
70253;SDS011;57649;42.968;1.608;2022-12-18T10:55:45;5.97;;;3.53;;
70253;SDS011;57649;42.968;1.608;2022-12-18T11:03:35;7.90;;;5.72;;
70253;SDS011;57649;42.968;1.608;2022-12-18T11:06:05;9.07;;;4.43;;
70253;SDS011;57649;42.968;1.608;2022-12-18T11:08:31;5.72;;;3.50;;
70253;SDS011;57649;42.968;1.608;2022-12-18T11:10:57;6.65;;;4.00;;
70253;SDS011;57649;42.968;1.608;2022-12-18T11:13:23;4.93;;;3.50;;
70253;SDS011;57649;42.968;1.608;2022-12-18T11:15:51;6.22;;;3.63;;
70253;SDS011;57649;42.968;1.608;2022-12-18T11:18:18;5.15;;;3.22;;
70253;SDS011;57649;42.968;1.608;2022-12-18T11:20:50;6.05;;;4.50;;
70253;SDS011;57649;42.968;1.608;2022-12-18T11:23:18;5.43;;;3.00;;
70253;SDS011;57649;42.968;1.608;2022-12-18T11:25:54;4.75;;;3.42;;
70253;SDS011;57649;42.968;1.608;2022-12-18T11:28:29;3.95;;;2.67;;
70253;SDS011;57649;42.968;1.608;2022-12-18T11:34:13;5.13;;;3.25;;
70253;SDS011;57649;42.968;1.608;2022-12-18T11:36:45;15.25;;;8.23;;
70253;SDS011;57649;42.968;1.608;2022-12-18T11:39:15;11.95;;;3.90;;
70253;SDS011;57649;42.968;1.608;2022-12-18T11:41:50;6.93;;;3.67;;
70253;SDS011;57649;42.968;1.608;2022-12-18T11:47:22;6.88;;;3.20;;
70253;SDS011;57649;42.968;1.608;2022-12-18T11:50:01;5.00;;;3.30;;
70253;SDS011;57649;42.968;1.608;2022-12-18T11:52:33;9.82;;;4.82;;
70253;SDS011;57649;42.968;1.608;2022-12-18T11:55:11;7.72;;;3.58;;
70253;SDS011;57649;42.968;1.608;2022-12-18T12:00:15;4.97;;;3.08;;
70253;SDS011;57649;42.968;1.608;2022-12-18T12:16:33;4.60;;;2.67;;
70253;SDS011;57649;42.968;1.608;2022-12-18T12:19:25;4.50;;;2.83;;
70253;SDS011;57649;42.968;1.608;2022-12-18T12:22:04;3.72;;;2.70;;
70253;SDS011;57649;42.968;1.608;2022-12-18T12:27:32;5.22;;;3.45;;
70253;SDS011;57649;42.968;1.608;2022-12-18T12:32:45;4.25;;;3.00;;
70253;SDS011;57649;42.968;1.608;2022-12-18T12:38:28;7.50;;;6.80;;
70253;SDS011;57649;42.968;1.608;2022-12-18T12:41:01;3.58;;;2.75;;
70253;SDS011;57649;42.968;1.608;2022-12-18T12:43:35;6.55;;;3.10;;
70253;SDS011;57649;42.968;1.608;2022-12-18T12:46:07;5.03;;;3.17;;
70253;SDS011;57649;42.968;1.608;2022-12-18T12:51:11;5.95;;;3.15;;
70253;SDS011;57649;42.968;1.608;2022-12-18T12:53:49;4.38;;;2.78;;
70253;SDS011;57649;42.968;1.608;2022-12-18T12:56:16;4.70;;;3.20;;
70253;SDS011;57649;42.968;1.608;2022-12-18T13:01:38;4.95;;;3.58;;
70253;SDS011;57649;42.968;1.608;2022-12-18T13:04:27;5.63;;;2.92;;
70253;SDS011;57649;42.968;1.608;2022-12-18T13:07:04;4.88;;;3.33;;
70253;SDS011;57649;42.968;1.608;2022-12-18T13:12:50;4.13;;;3.05;;
70253;SDS011;57649;42.968;1.608;2022-12-18T13:15:32;5.28;;;3.60;;
70253;SDS011;57649;42.968;1.608;2022-12-18T13:20:34;5.22;;;3.17;;
70253;SDS011;57649;42.968;1.608;2022-12-18T13:25:48;6.00;;;3.17;;
70253;SDS011;57649;42.968;1.608;2022-12-18T13:31:05;5.57;;;3.67;;
70253;SDS011;57649;42.968;1.608;2022-12-18T13:36:09;4.50;;;3.20;;
70253;SDS011;57649;42.968;1.608;2022-12-18T13:41:43;7.13;;;3.30;;
70253;SDS011;57649;42.968;1.608;2022-12-18T13:44:19;3.97;;;3.20;;
70253;SDS011;57649;42.968;1.608;2022-12-18T13:46:50;4.15;;;2.95;;
70253;SDS011;57649;42.968;1.608;2022-12-18T13:49:25;7.97;;;6.28;;
70253;SDS011;57649;42.968;1.608;2022-12-18T13:51:55;4.20;;;3.15;;
70253;SDS011;57649;42.968;1.608;2022-12-18T13:54:39;4.70;;;3.85;;
70253;SDS011;57649;42.968;1.608;2022-12-18T13:57:25;6.28;;;3.55;;
70253;SDS011;57649;42.968;1.608;2022-12-18T13:59:53;5.15;;;3.70;;
70253;SDS011;57649;42.968;1.608;2022-12-18T14:02:22;7.93;;;3.80;;
70253;SDS011;57649;42.968;1.608;2022-12-18T14:04:50;5.18;;;3.45;;
70253;SDS011;57649;42.968;1.608;2022-12-18T14:07:20;5.22;;;3.20;;
70253;SDS011;57649;42.968;1.608;2022-12-18T14:10:00;5.05;;;3.03;;
70253;SDS011;57649;42.968;1.608;2022-12-18T14:12:27;6.10;;;3.15;;
70253;SDS011;57649;42.968;1.608;2022-12-18T14:17:47;7.45;;;2.75;;
70253;SDS011;57649;42.968;1.608;2022-12-18T14:20:15;5.47;;;3.05;;
70253;SDS011;57649;42.968;1.608;2022-12-18T14:22:42;6.00;;;3.65;;
70253;SDS011;57649;42.968;1.608;2022-12-18T14:25:13;6.43;;;2.70;;
70253;SDS011;57649;42.968;1.608;2022-12-18T14:27:44;6.40;;;3.60;;
70253;SDS011;57649;42.968;1.608;2022-12-18T14:33:05;6.13;;;3.47;;
70253;SDS011;57649;42.968;1.608;2022-12-18T14:35:42;7.10;;;4.20;;
70253;SDS011;57649;42.968;1.608;2022-12-18T14:38:27;12.45;;;6.95;;
70253;SDS011;57649;42.968;1.608;2022-12-18T14:41:09;9.02;;;4.85;;
70253;SDS011;57649;42.968;1.608;2022-12-18T14:43:38;11.30;;;7.88;;
70253;SDS011;57649;42.968;1.608;2022-12-18T14:46:27;6.63;;;3.97;;
70253;SDS011;57649;42.968;1.608;2022-12-18T14:48:57;8.23;;;4.78;;
70253;SDS011;57649;42.968;1.608;2022-12-18T14:51:26;10.38;;;5.22;;
70253;SDS011;57649;42.968;1.608;2022-12-18T14:53:54;7.55;;;4.30;;
70253;SDS011;57649;42.968;1.608;2022-12-18T14:59:01;9.25;;;6.47;;
70253;SDS011;57649;42.968;1.608;2022-12-18T15:01:33;8.95;;;5.95;;
70253;SDS011;57649;42.968;1.608;2022-12-18T15:04:02;9.73;;;5.93;;
70253;SDS011;57649;42.968;1.608;2022-12-18T15:08:55;17.48;;;9.52;;
70253;SDS011;57649;42.968;1.608;2022-12-18T15:11:28;10.65;;;6.20;;
70253;SDS011;57649;42.968;1.608;2022-12-18T15:17:01;16.48;;;8.75;;
70253;SDS011;57649;42.968;1.608;2022-12-18T15:22:04;12.45;;;7.47;;
70253;SDS011;57649;42.968;1.608;2022-12-18T15:24:43;8.70;;;5.33;;
70253;SDS011;57649;42.968;1.608;2022-12-18T15:27:25;5.65;;;4.20;;
70253;SDS011;57649;42.968;1.608;2022-12-18T15:30:01;10.27;;;6.30;;
70253;SDS011;57649;42.968;1.608;2022-12-18T15:32:33;10.70;;;6.22;;
70253;SDS011;57649;42.968;1.608;2022-12-18T15:35:12;11.63;;;7.28;;
70253;SDS011;57649;42.968;1.608;2022-12-18T15:37:40;5.82;;;4.30;;
70253;SDS011;57649;42.968;1.608;2022-12-18T15:40:07;6.57;;;4.53;;
70253;SDS011;57649;42.968;1.608;2022-12-18T15:42:36;8.00;;;4.57;;
70253;SDS011;57649;42.968;1.608;2022-12-18T15:45:20;10.55;;;5.43;;
70253;SDS011;57649;42.968;1.608;2022-12-18T15:47:46;8.38;;;4.88;;
70253;SDS011;57649;42.968;1.608;2022-12-18T15:50:11;6.93;;;5.40;;
70253;SDS011;57649;42.968;1.608;2022-12-18T15:52:41;12.60;;;8.02;;
70253;SDS011;57649;42.968;1.608;2022-12-18T15:55:12;10.82;;;5.28;;
70253;SDS011;57649;42.968;1.608;2022-12-18T15:57:57;8.05;;;4.72;;
70253;SDS011;57649;42.968;1.608;2022-12-18T16:00:23;7.15;;;5.47;;
70253;SDS011;57649;42.968;1.608;2022-12-18T16:02:49;6.68;;;5.78;;
70253;SDS011;57649;42.968;1.608;2022-12-18T16:05:15;7.60;;;5.65;;
70253;SDS011;57649;42.968;1.608;2022-12-18T16:07:42;8.70;;;5.43;;
70253;SDS011;57649;42.968;1.608;2022-12-18T16:10:08;11.73;;;6.68;;
70253;SDS011;57649;42.968;1.608;2022-12-18T16:12:33;12.38;;;8.02;;
70253;SDS011;57649;42.968;1.608;2022-12-18T16:14:59;11.68;;;7.40;;
70253;SDS011;57649;42.968;1.608;2022-12-18T16:17:24;9.50;;;6.65;;
70253;SDS011;57649;42.968;1.608;2022-12-18T16:19:50;9.95;;;6.90;;
70253;SDS011;57649;42.968;1.608;2022-12-18T16:22:17;8.63;;;6.38;;
70253;SDS011;57649;42.968;1.608;2022-12-18T16:24:48;9.00;;;5.97;;
70253;SDS011;57649;42.968;1.608;2022-12-18T16:27:14;8.32;;;6.28;;
70253;SDS011;57649;42.968;1.608;2022-12-18T16:29:39;16.08;;;9.05;;
70253;SDS011;57649;42.968;1.608;2022-12-18T16:32:05;7.70;;;5.93;;
70253;SDS011;57649;42.968;1.608;2022-12-18T16:34:32;10.43;;;7.55;;
70253;SDS011;57649;42.968;1.608;2022-12-18T16:37:06;13.43;;;8.40;;
70253;SDS011;57649;42.968;1.608;2022-12-18T16:39:33;11.82;;;6.80;;
70253;SDS011;57649;42.968;1.608;2022-12-18T16:41:59;10.95;;;7.65;;
70253;SDS011;57649;42.968;1.608;2022-12-18T16:44:25;10.45;;;6.60;;
70253;SDS011;57649;42.968;1.608;2022-12-18T16:46:51;13.23;;;9.90;;
70253;SDS011;57649;42.968;1.608;2022-12-18T16:49:17;21.98;;;12.77;;
70253;SDS011;57649;42.968;1.608;2022-12-18T16:51:43;14.18;;;8.45;;
70253;SDS011;57649;42.968;1.608;2022-12-18T16:54:10;9.90;;;6.40;;
70253;SDS011;57649;42.968;1.608;2022-12-18T16:56:36;6.90;;;4.93;;
70253;SDS011;57649;42.968;1.608;2022-12-18T16:59:02;7.93;;;4.60;;
70253;SDS011;57649;42.968;1.608;2022-12-18T17:01:28;11.45;;;6.53;;
70253;SDS011;57649;42.968;1.608;2022-12-18T17:03:59;10.38;;;7.38;;
70253;SDS011;57649;42.968;1.608;2022-12-18T17:06:27;9.60;;;6.50;;
70253;SDS011;57649;42.968;1.608;2022-12-18T17:08:54;11.00;;;6.43;;